sensor_id;sensor_type;location;lat;lon;timestamp;temperature;humidity
66144;SHT31;52947;50.842;6.084;2022-09-09T00:02:19;15.38;80.88
66144;SHT31;52947;50.842;6.084;2022-09-09T00:04:55;15.28;81.05
66144;SHT31;52947;50.842;6.084;2022-09-09T00:07:36;15.28;82.11
66144;SHT31;52947;50.842;6.084;2022-09-09T00:10:16;15.14;82.10
66144;SHT31;52947;50.842;6.084;2022-09-09T00:12:53;15.16;82.62
66144;SHT31;52947;50.842;6.084;2022-09-09T00:15:25;15.19;81.41
66144;SHT31;52947;50.842;6.084;2022-09-09T00:17:59;15.19;81.50
66144;SHT31;52947;50.842;6.084;2022-09-09T00:20:32;15.26;81.90
66144;SHT31;52947;50.842;6.084;2022-09-09T00:23:12;15.26;82.13
66144;SHT31;52947;50.842;6.084;2022-09-09T00:25:46;15.26;82.53
66144;SHT31;52947;50.842;6.084;2022-09-09T00:28:20;15.24;81.63
66144;SHT31;52947;50.842;6.084;2022-09-09T00:30:49;15.20;82.05
66144;SHT31;52947;50.842;6.084;2022-09-09T00:33:19;15.17;82.01
66144;SHT31;52947;50.842;6.084;2022-09-09T00:35:50;15.17;82.83
66144;SHT31;52947;50.842;6.084;2022-09-09T00:38:24;15.11;82.78
66144;SHT31;52947;50.842;6.084;2022-09-09T00:40:55;15.06;82.99
66144;SHT31;52947;50.842;6.084;2022-09-09T00:43:28;15.14;82.52
66144;SHT31;52947;50.842;6.084;2022-09-09T00:48:56;15.23;82.50
66144;SHT31;52947;50.842;6.084;2022-09-09T00:51:36;15.22;83.09
66144;SHT31;52947;50.842;6.084;2022-09-09T00:54:19;15.22;82.81
66144;SHT31;52947;50.842;6.084;2022-09-09T00:56:59;15.19;83.02
66144;SHT31;52947;50.842;6.084;2022-09-09T00:59:34;15.36;82.53
66144;SHT31;52947;50.842;6.084;2022-09-09T01:02:15;15.20;82.94
66144;SHT31;52947;50.842;6.084;2022-09-09T01:04:45;15.17;83.39
66144;SHT31;52947;50.842;6.084;2022-09-09T01:07:16;15.22;83.07
66144;SHT31;52947;50.842;6.084;2022-09-09T01:09:52;15.30;83.09
66144;SHT31;52947;50.842;6.084;2022-09-09T01:12:29;15.19;83.15
66144;SHT31;52947;50.842;6.084;2022-09-09T01:15:10;15.26;83.35
66144;SHT31;52947;50.842;6.084;2022-09-09T01:17:53;15.14;83.39
66144;SHT31;52947;50.842;6.084;2022-09-09T01:20:25;15.19;83.59
66144;SHT31;52947;50.842;6.084;2022-09-09T01:23:09;15.19;83.13
66144;SHT31;52947;50.842;6.084;2022-09-09T01:26:11;15.19;83.48
66144;SHT31;52947;50.842;6.084;2022-09-09T01:28:43;15.08;83.88
66144;SHT31;52947;50.842;6.084;2022-09-09T01:31:17;15.08;83.99
66144;SHT31;52947;50.842;6.084;2022-09-09T01:33:47;15.20;83.65
66144;SHT31;52947;50.842;6.084;2022-09-09T01:36:21;15.33;83.19
66144;SHT31;52947;50.842;6.084;2022-09-09T01:38:52;15.43;82.92
66144;SHT31;52947;50.842;6.084;2022-09-09T01:41:22;15.37;83.23
66144;SHT31;52947;50.842;6.084;2022-09-09T01:44:03;15.38;83.08
66144;SHT31;52947;50.842;6.084;2022-09-09T01:46:33;15.43;83.06
66144;SHT31;52947;50.842;6.084;2022-09-09T01:49:03;15.53;82.60
66144;SHT31;52947;50.842;6.084;2022-09-09T01:51:31;15.57;82.62
66144;SHT31;52947;50.842;6.084;2022-09-09T01:54:04;15.51;82.91
66144;SHT31;52947;50.842;6.084;2022-09-09T01:56:42;15.53;82.93
66144;SHT31;52947;50.842;6.084;2022-09-09T01:59:23;15.61;82.57
66144;SHT31;52947;50.842;6.084;2022-09-09T02:02:07;15.69;82.19
66144;SHT31;52947;50.842;6.084;2022-09-09T02:04:42;15.68;82.45
66144;SHT31;52947;50.842;6.084;2022-09-09T02:07:30;15.68;82.47
66144;SHT31;52947;50.842;6.084;2022-09-09T02:10:07;15.65;82.47
66144;SHT31;52947;50.842;6.084;2022-09-09T02:12:43;15.65;82.59
66144;SHT31;52947;50.842;6.084;2022-09-09T02:15:17;15.62;83.07
66144;SHT31;52947;50.842;6.084;2022-09-09T02:17:49;15.62;83.08
66144;SHT31;52947;50.842;6.084;2022-09-09T02:20:20;15.67;82.65
66144;SHT31;52947;50.842;6.084;2022-09-09T02:22:53;15.69;82.55
66144;SHT31;52947;50.842;6.084;2022-09-09T02:25:26;15.69;82.66
66144;SHT31;52947;50.842;6.084;2022-09-09T02:28:06;15.71;82.61
66144;SHT31;52947;50.842;6.084;2022-09-09T02:30:37;15.67;82.72
66144;SHT31;52947;50.842;6.084;2022-09-09T02:33:08;15.68;82.81
66144;SHT31;52947;50.842;6.084;2022-09-09T02:35:45;15.64;82.70
66144;SHT31;52947;50.842;6.084;2022-09-09T02:38:19;15.71;82.91
66144;SHT31;52947;50.842;6.084;2022-09-09T02:41:00;15.69;82.48
66144;SHT31;52947;50.842;6.084;2022-09-09T02:43:32;15.69;82.55
66144;SHT31;52947;50.842;6.084;2022-09-09T02:46:10;15.69;82.64
66144;SHT31;52947;50.842;6.084;2022-09-09T02:48:51;15.91;81.98
66144;SHT31;52947;50.842;6.084;2022-09-09T02:51:24;15.84;82.02
66144;SHT31;52947;50.842;6.084;2022-09-09T02:54:01;15.85;82.01
66144;SHT31;52947;50.842;6.084;2022-09-09T02:56:32;15.84;82.07
66144;SHT31;52947;50.842;6.084;2022-09-09T02:59:05;15.78;82.21
66144;SHT31;52947;50.842;6.084;2022-09-09T03:01:35;15.74;82.78
66144;SHT31;52947;50.842;6.084;2022-09-09T03:04:03;15.69;82.63
66144;SHT31;52947;50.842;6.084;2022-09-09T03:06:32;15.74;82.73
66144;SHT31;52947;50.842;6.084;2022-09-09T03:09:09;15.81;82.07
66144;SHT31;52947;50.842;6.084;2022-09-09T03:11:38;15.75;81.96
66144;SHT31;52947;50.842;6.084;2022-09-09T03:14:08;15.74;82.07
66144;SHT31;52947;50.842;6.084;2022-09-09T03:16:37;15.72;81.87
66144;SHT31;52947;50.842;6.084;2022-09-09T03:19:06;15.72;82.03
66144;SHT31;52947;50.842;6.084;2022-09-09T03:21:34;15.79;81.66
66144;SHT31;52947;50.842;6.084;2022-09-09T03:24:02;15.77;81.62
66144;SHT31;52947;50.842;6.084;2022-09-09T03:26:30;15.74;82.20
66144;SHT31;52947;50.842;6.084;2022-09-09T03:28:59;15.74;81.85
66144;SHT31;52947;50.842;6.084;2022-09-09T03:31:30;15.75;82.19
66144;SHT31;52947;50.842;6.084;2022-09-09T03:33:58;15.68;81.85
66144;SHT31;52947;50.842;6.084;2022-09-09T03:36:30;15.62;81.97
66144;SHT31;52947;50.842;6.084;2022-09-09T03:38:58;15.65;81.91
66144;SHT31;52947;50.842;6.084;2022-09-09T03:41:29;15.69;81.86
66144;SHT31;52947;50.842;6.084;2022-09-09T03:43:59;15.71;81.64
66144;SHT31;52947;50.842;6.084;2022-09-09T03:46:32;15.71;81.61
66144;SHT31;52947;50.842;6.084;2022-09-09T03:49:00;15.72;81.43
66144;SHT31;52947;50.842;6.084;2022-09-09T03:51:30;15.69;81.61
66144;SHT31;52947;50.842;6.084;2022-09-09T03:54:04;15.62;81.61
66144;SHT31;52947;50.842;6.084;2022-09-09T03:56:35;15.61;81.63
66144;SHT31;52947;50.842;6.084;2022-09-09T03:59:03;15.68;81.61
66144;SHT31;52947;50.842;6.084;2022-09-09T04:01:33;15.75;81.48
66144;SHT31;52947;50.842;6.084;2022-09-09T04:04:01;15.74;81.61
66144;SHT31;52947;50.842;6.084;2022-09-09T04:06:29;15.75;81.12
66144;SHT31;52947;50.842;6.084;2022-09-09T04:08:57;15.84;81.10
66144;SHT31;52947;50.842;6.084;2022-09-09T04:11:25;15.91;80.60
66144;SHT31;52947;50.842;6.084;2022-09-09T04:13:56;15.91;80.25
66144;SHT31;52947;50.842;6.084;2022-09-09T04:16:24;15.97;80.49
66144;SHT31;52947;50.842;6.084;2022-09-09T04:18:54;15.92;80.41
66144;SHT31;52947;50.842;6.084;2022-09-09T04:21:22;15.97;80.09
66144;SHT31;52947;50.842;6.084;2022-09-09T04:23:50;15.99;79.87
66144;SHT31;52947;50.842;6.084;2022-09-09T04:26:18;16.06;79.99
66144;SHT31;52947;50.842;6.084;2022-09-09T04:28:46;16.06;79.85
66144;SHT31;52947;50.842;6.084;2022-09-09T04:31:19;16.02;79.82
66144;SHT31;52947;50.842;6.084;2022-09-09T04:33:53;15.98;79.96
66144;SHT31;52947;50.842;6.084;2022-09-09T04:36:21;16.04;79.93
66144;SHT31;52947;50.842;6.084;2022-09-09T04:38:53;16.01;79.88
66144;SHT31;52947;50.842;6.084;2022-09-09T04:41:21;15.99;79.93
66144;SHT31;52947;50.842;6.084;2022-09-09T04:43:52;15.94;80.26
66144;SHT31;52947;50.842;6.084;2022-09-09T04:46:21;15.89;80.28
66144;SHT31;52947;50.842;6.084;2022-09-09T04:48:51;15.82;80.56
66144;SHT31;52947;50.842;6.084;2022-09-09T04:51:23;15.89;80.30
66144;SHT31;52947;50.842;6.084;2022-09-09T04:53:51;15.85;80.00
66144;SHT31;52947;50.842;6.084;2022-09-09T04:56:20;15.87;80.31
66144;SHT31;52947;50.842;6.084;2022-09-09T04:58:54;15.82;80.21
66144;SHT31;52947;50.842;6.084;2022-09-09T05:01:30;15.84;80.24
66144;SHT31;52947;50.842;6.084;2022-09-09T05:04:02;15.78;80.50
66144;SHT31;52947;50.842;6.084;2022-09-09T05:06:34;15.65;80.62
66144;SHT31;52947;50.842;6.084;2022-09-09T05:09:03;15.71;81.11
66144;SHT31;52947;50.842;6.084;2022-09-09T05:11:32;15.64;80.70
66144;SHT31;52947;50.842;6.084;2022-09-09T05:14:22;15.67;80.67
66144;SHT31;52947;50.842;6.084;2022-09-09T05:16:50;15.67;80.38
66144;SHT31;52947;50.842;6.084;2022-09-09T05:19:18;15.67;80.23
66144;SHT31;52947;50.842;6.084;2022-09-09T05:21:49;15.61;80.46
66144;SHT31;52947;50.842;6.084;2022-09-09T05:24:22;15.58;80.40
66144;SHT31;52947;50.842;6.084;2022-09-09T05:26:53;15.67;80.13
66144;SHT31;52947;50.842;6.084;2022-09-09T05:29:26;15.61;79.83
66144;SHT31;52947;50.842;6.084;2022-09-09T05:31:55;15.71;79.59
66144;SHT31;52947;50.842;6.084;2022-09-09T05:34:23;15.71;79.69
66144;SHT31;52947;50.842;6.084;2022-09-09T05:36:53;15.72;79.50
66144;SHT31;52947;50.842;6.084;2022-09-09T05:39:22;15.71;79.44
66144;SHT31;52947;50.842;6.084;2022-09-09T05:41:51;15.78;79.74
66144;SHT31;52947;50.842;6.084;2022-09-09T05:44:19;15.71;79.10
66144;SHT31;52947;50.842;6.084;2022-09-09T05:46:47;15.77;79.08
66144;SHT31;52947;50.842;6.084;2022-09-09T05:49:16;15.78;79.00
66144;SHT31;52947;50.842;6.084;2022-09-09T05:51:44;15.78;79.14
66144;SHT31;52947;50.842;6.084;2022-09-09T05:54:15;15.77;78.97
66144;SHT31;52947;50.842;6.084;2022-09-09T05:56:47;15.72;79.26
66144;SHT31;52947;50.842;6.084;2022-09-09T05:59:18;15.72;78.94
66144;SHT31;52947;50.842;6.084;2022-09-09T06:01:46;15.75;78.97
66144;SHT31;52947;50.842;6.084;2022-09-09T06:04:20;15.81;78.59
66144;SHT31;52947;50.842;6.084;2022-09-09T06:06:50;15.77;78.66
66144;SHT31;52947;50.842;6.084;2022-09-09T06:09:22;15.82;78.23
66144;SHT31;52947;50.842;6.084;2022-09-09T06:11:49;15.87;78.13
66144;SHT31;52947;50.842;6.084;2022-09-09T06:14:19;15.81;78.10
66144;SHT31;52947;50.842;6.084;2022-09-09T06:16:49;15.84;78.33
66144;SHT31;52947;50.842;6.084;2022-09-09T06:19:22;16.01;77.57
66144;SHT31;52947;50.842;6.084;2022-09-09T06:21:56;16.29;76.95
66144;SHT31;52947;50.842;6.084;2022-09-09T06:24:25;17.61;73.29
66144;SHT31;52947;50.842;6.084;2022-09-09T06:26:53;17.79;71.84
66144;SHT31;52947;50.842;6.084;2022-09-09T06:29:26;17.93;71.35
66144;SHT31;52947;50.842;6.084;2022-09-09T06:31:53;18.61;69.07
66144;SHT31;52947;50.842;6.084;2022-09-09T06:34:25;20.22;65.83
66144;SHT31;52947;50.842;6.084;2022-09-09T06:36:55;21.30;63.01
66144;SHT31;52947;50.842;6.084;2022-09-09T06:39:27;21.99;61.05
66144;SHT31;52947;50.842;6.084;2022-09-09T06:41:55;22.50;59.30
66144;SHT31;52947;50.842;6.084;2022-09-09T06:44:54;22.50;58.45
66144;SHT31;52947;50.842;6.084;2022-09-09T06:47:35;23.29;57.15
66144;SHT31;52947;50.842;6.084;2022-09-09T06:50:04;22.42;58.56
66144;SHT31;52947;50.842;6.084;2022-09-09T06:52:34;22.67;58.27
66144;SHT31;52947;50.842;6.084;2022-09-09T06:55:05;21.26;60.01
66144;SHT31;52947;50.842;6.084;2022-09-09T06:57:35;20.71;61.92
66144;SHT31;52947;50.842;6.084;2022-09-09T07:00:13;19.95;63.99
66144;SHT31;52947;50.842;6.084;2022-09-09T07:02:41;19.47;64.89
66144;SHT31;52947;50.842;6.084;2022-09-09T07:05:11;19.20;65.58
66144;SHT31;52947;50.842;6.084;2022-09-09T07:07:41;18.61;66.43
66144;SHT31;52947;50.842;6.084;2022-09-09T07:10:12;18.30;67.90
66144;SHT31;52947;50.842;6.084;2022-09-09T07:12:40;18.18;68.27
66144;SHT31;52947;50.842;6.084;2022-09-09T07:15:10;18.24;68.27
66144;SHT31;52947;50.842;6.084;2022-09-09T07:17:42;18.17;68.52
66144;SHT31;52947;50.842;6.084;2022-09-09T07:20:10;18.21;68.56
66144;SHT31;52947;50.842;6.084;2022-09-09T07:22:39;18.14;68.72
66144;SHT31;52947;50.842;6.084;2022-09-09T07:25:08;18.20;68.47
66144;SHT31;52947;50.842;6.084;2022-09-09T07:27:38;18.29;68.63
66144;SHT31;52947;50.842;6.084;2022-09-09T07:30:08;18.20;68.62
66144;SHT31;52947;50.842;6.084;2022-09-09T07:32:36;18.07;68.41
66144;SHT31;52947;50.842;6.084;2022-09-09T07:35:05;18.13;69.14
66144;SHT31;52947;50.842;6.084;2022-09-09T07:37:36;18.14;69.00
66144;SHT31;52947;50.842;6.084;2022-09-09T07:40:05;18.14;68.87
66144;SHT31;52947;50.842;6.084;2022-09-09T07:42:33;18.07;68.69
66144;SHT31;52947;50.842;6.084;2022-09-09T07:45:02;18.36;68.06
66144;SHT31;52947;50.842;6.084;2022-09-09T07:47:31;18.68;67.69
66144;SHT31;52947;50.842;6.084;2022-09-09T07:49:59;18.50;67.69
66144;SHT31;52947;50.842;6.084;2022-09-09T07:52:30;18.37;67.93
66144;SHT31;52947;50.842;6.084;2022-09-09T07:55:01;18.06;68.57
66144;SHT31;52947;50.842;6.084;2022-09-09T07:57:31;17.96;69.32
66144;SHT31;52947;50.842;6.084;2022-09-09T08:00:03;17.73;69.15
66144;SHT31;52947;50.842;6.084;2022-09-09T08:02:38;19.01;66.95
66144;SHT31;52947;50.842;6.084;2022-09-09T08:05:07;20.85;62.15
66144;SHT31;52947;50.842;6.084;2022-09-09T08:07:36;20.41;61.95
66144;SHT31;52947;50.842;6.084;2022-09-09T08:10:05;21.84;59.54
66144;SHT31;52947;50.842;6.084;2022-09-09T08:12:36;22.86;57.51
66144;SHT31;52947;50.842;6.084;2022-09-09T08:15:06;23.58;55.36
66144;SHT31;52947;50.842;6.084;2022-09-09T08:17:34;23.72;53.92
66144;SHT31;52947;50.842;6.084;2022-09-09T08:20:05;24.41;52.69
66144;SHT31;52947;50.842;6.084;2022-09-09T08:22:34;24.46;52.78
66144;SHT31;52947;50.842;6.084;2022-09-09T08:25:05;22.88;55.27
66144;SHT31;52947;50.842;6.084;2022-09-09T08:27:36;21.82;57.36
66144;SHT31;52947;50.842;6.084;2022-09-09T08:30:08;21.19;58.90
66144;SHT31;52947;50.842;6.084;2022-09-09T08:32:36;20.29;60.97
66144;SHT31;52947;50.842;6.084;2022-09-09T08:35:08;20.29;61.44
66144;SHT31;52947;50.842;6.084;2022-09-09T08:37:37;20.73;61.14
66144;SHT31;52947;50.842;6.084;2022-09-09T08:40:09;21.55;59.21
66144;SHT31;52947;50.842;6.084;2022-09-09T08:42:44;21.57;58.64
66144;SHT31;52947;50.842;6.084;2022-09-09T08:45:26;23.08;55.31
66144;SHT31;52947;50.842;6.084;2022-09-09T08:48:16;23.79;53.67
66144;SHT31;52947;50.842;6.084;2022-09-09T08:50:49;24.13;52.96
66144;SHT31;52947;50.842;6.084;2022-09-09T08:53:27;25.22;51.00
66144;SHT31;52947;50.842;6.084;2022-09-09T08:55:58;24.79;51.24
66144;SHT31;52947;50.842;6.084;2022-09-09T08:58:44;24.14;52.16
66144;SHT31;52947;50.842;6.084;2022-09-09T09:01:23;24.69;51.70
66144;SHT31;52947;50.842;6.084;2022-09-09T09:04:02;25.50;50.63
66144;SHT31;52947;50.842;6.084;2022-09-09T09:06:45;25.43;49.29
66144;SHT31;52947;50.842;6.084;2022-09-09T09:09:21;25.26;49.88
66144;SHT31;52947;50.842;6.084;2022-09-09T09:11:54;24.91;51.04
66144;SHT31;52947;50.842;6.084;2022-09-09T09:14:23;24.30;51.78
66144;SHT31;52947;50.842;6.084;2022-09-09T09:17:01;24.36;51.53
66144;SHT31;52947;50.842;6.084;2022-09-09T09:19:31;24.13;52.11
66144;SHT31;52947;50.842;6.084;2022-09-09T09:22:06;24.23;51.63
66144;SHT31;52947;50.842;6.084;2022-09-09T09:24:45;24.81;51.46
66144;SHT31;52947;50.842;6.084;2022-09-09T09:27:21;24.23;52.40
66144;SHT31;52947;50.842;6.084;2022-09-09T09:29:54;23.44;53.37
66144;SHT31;52947;50.842;6.084;2022-09-09T09:32:52;23.92;52.75
66144;SHT31;52947;50.842;6.084;2022-09-09T09:35:21;24.05;52.92
66144;SHT31;52947;50.842;6.084;2022-09-09T09:37:49;23.87;52.32
66144;SHT31;52947;50.842;6.084;2022-09-09T09:40:48;23.12;53.84
66144;SHT31;52947;50.842;6.084;2022-09-09T09:43:20;22.25;54.91
66144;SHT31;52947;50.842;6.084;2022-09-09T09:45:49;21.51;56.13
66144;SHT31;52947;50.842;6.084;2022-09-09T09:48:39;21.02;57.57
66144;SHT31;52947;50.842;6.084;2022-09-09T09:51:09;20.68;58.33
66144;SHT31;52947;50.842;6.084;2022-09-09T09:53:39;20.32;59.37
66144;SHT31;52947;50.842;6.084;2022-09-09T09:56:11;20.20;59.85
66144;SHT31;52947;50.842;6.084;2022-09-09T09:58:50;20.04;60.08
66144;SHT31;52947;50.842;6.084;2022-09-09T10:01:24;19.91;60.39
66144;SHT31;52947;50.842;6.084;2022-09-09T10:03:58;19.94;60.52
66144;SHT31;52947;50.842;6.084;2022-09-09T10:06:30;19.77;61.06
66144;SHT31;52947;50.842;6.084;2022-09-09T10:09:01;19.70;61.38
66144;SHT31;52947;50.842;6.084;2022-09-09T10:11:37;19.69;61.93
66144;SHT31;52947;50.842;6.084;2022-09-09T10:14:16;19.32;62.48
66144;SHT31;52947;50.842;6.084;2022-09-09T10:16:59;19.11;63.80
66144;SHT31;52947;50.842;6.084;2022-09-09T10:19:33;19.06;65.33
66144;SHT31;52947;50.842;6.084;2022-09-09T10:22:07;18.94;65.47
66144;SHT31;52947;50.842;6.084;2022-09-09T10:24:58;18.95;65.70
66144;SHT31;52947;50.842;6.084;2022-09-09T10:27:33;19.23;65.21
66144;SHT31;52947;50.842;6.084;2022-09-09T10:30:12;19.40;64.56
66144;SHT31;52947;50.842;6.084;2022-09-09T10:32:48;19.39;64.77
66144;SHT31;52947;50.842;6.084;2022-09-09T10:35:29;19.84;64.10
66144;SHT31;52947;50.842;6.084;2022-09-09T10:38:12;19.83;64.15
66144;SHT31;52947;50.842;6.084;2022-09-09T10:41:00;19.71;64.49
66144;SHT31;52947;50.842;6.084;2022-09-09T10:43:43;19.45;65.45
66144;SHT31;52947;50.842;6.084;2022-09-09T10:46:19;19.32;65.27
66144;SHT31;52947;50.842;6.084;2022-09-09T10:49:04;19.11;66.13
66144;SHT31;52947;50.842;6.084;2022-09-09T10:51:45;19.08;66.59
66144;SHT31;52947;50.842;6.084;2022-09-09T10:54:29;19.01;67.33
66144;SHT31;52947;50.842;6.084;2022-09-09T10:57:03;19.62;65.97
66144;SHT31;52947;50.842;6.084;2022-09-09T10:59:38;20.11;64.22
66144;SHT31;52947;50.842;6.084;2022-09-09T11:02:14;20.25;63.94
66144;SHT31;52947;50.842;6.084;2022-09-09T11:04:50;20.80;62.77
66144;SHT31;52947;50.842;6.084;2022-09-09T11:07:28;20.80;62.95
66144;SHT31;52947;50.842;6.084;2022-09-09T11:10:02;21.81;61.41
66144;SHT31;52947;50.842;6.084;2022-09-09T11:12:34;23.01;57.31
66144;SHT31;52947;50.842;6.084;2022-09-09T11:15:06;23.32;57.41
66144;SHT31;52947;50.842;6.084;2022-09-09T11:17:42;22.28;58.92
66144;SHT31;52947;50.842;6.084;2022-09-09T11:20:12;21.86;59.76
66144;SHT31;52947;50.842;6.084;2022-09-09T11:22:42;21.74;60.12
66144;SHT31;52947;50.842;6.084;2022-09-09T11:25:15;21.64;60.39
66144;SHT31;52947;50.842;6.084;2022-09-09T11:27:54;22.98;57.29
66144;SHT31;52947;50.842;6.084;2022-09-09T11:30:28;21.96;58.45
66144;SHT31;52947;50.842;6.084;2022-09-09T11:33:49;20.80;61.61
66144;SHT31;52947;50.842;6.084;2022-09-09T11:36:37;20.11;63.03
66144;SHT31;52947;50.842;6.084;2022-09-09T11:39:23;19.87;64.34
66144;SHT31;52947;50.842;6.084;2022-09-09T11:42:06;19.67;64.26
66144;SHT31;52947;50.842;6.084;2022-09-09T11:44:34;19.77;64.99
66144;SHT31;52947;50.842;6.084;2022-09-09T11:47:03;19.75;65.20
66144;SHT31;52947;50.842;6.084;2022-09-09T11:49:40;19.53;65.55
66144;SHT31;52947;50.842;6.084;2022-09-09T11:52:12;19.40;66.23
66144;SHT31;52947;50.842;6.084;2022-09-09T11:54:47;19.20;66.30
66144;SHT31;52947;50.842;6.084;2022-09-09T11:57:24;19.15;66.50
66144;SHT31;52947;50.842;6.084;2022-09-09T11:59:53;19.11;66.78
66144;SHT31;52947;50.842;6.084;2022-09-09T12:02:24;19.24;66.56
66144;SHT31;52947;50.842;6.084;2022-09-09T12:04:59;19.30;66.89
66144;SHT31;52947;50.842;6.084;2022-09-09T12:07:34;19.33;67.54
66144;SHT31;52947;50.842;6.084;2022-09-09T12:10:22;19.67;66.66
66144;SHT31;52947;50.842;6.084;2022-09-09T12:12:51;20.05;65.46
66144;SHT31;52947;50.842;6.084;2022-09-09T12:15:22;20.29;64.83
66144;SHT31;52947;50.842;6.084;2022-09-09T12:17:52;20.53;63.96
66144;SHT31;52947;50.842;6.084;2022-09-09T12:20:26;20.75;63.25
66144;SHT31;52947;50.842;6.084;2022-09-09T12:23:27;20.59;63.64
66144;SHT31;52947;50.842;6.084;2022-09-09T12:26:16;20.29;64.21
66144;SHT31;52947;50.842;6.084;2022-09-09T12:28:54;20.31;64.06
66144;SHT31;52947;50.842;6.084;2022-09-09T12:31:27;19.93;63.99
66144;SHT31;52947;50.842;6.084;2022-09-09T12:34:09;19.88;65.09
66144;SHT31;52947;50.842;6.084;2022-09-09T12:36:39;19.97;65.15
66144;SHT31;52947;50.842;6.084;2022-09-09T12:39:17;19.94;65.26
66144;SHT31;52947;50.842;6.084;2022-09-09T12:41:53;19.52;67.19
66144;SHT31;52947;50.842;6.084;2022-09-09T12:44:25;19.13;70.92
66144;SHT31;52947;50.842;6.084;2022-09-09T12:46:55;18.61;73.77
66144;SHT31;52947;50.842;6.084;2022-09-09T12:49:29;18.50;75.65
66144;SHT31;52947;50.842;6.084;2022-09-09T12:52:02;19.09;74.63
66144;SHT31;52947;50.842;6.084;2022-09-09T12:54:33;19.90;70.12
66144;SHT31;52947;50.842;6.084;2022-09-09T12:57:04;20.26;69.34
66144;SHT31;52947;50.842;6.084;2022-09-09T12:59:36;20.76;69.22
66144;SHT31;52947;50.842;6.084;2022-09-09T13:02:16;21.11;67.21
66144;SHT31;52947;50.842;6.084;2022-09-09T13:04:45;21.71;65.44
66144;SHT31;52947;50.842;6.084;2022-09-09T13:07:14;22.04;64.62
66144;SHT31;52947;50.842;6.084;2022-09-09T13:09:43;22.15;65.73
66144;SHT31;52947;50.842;6.084;2022-09-09T13:12:15;22.13;63.98
66144;SHT31;52947;50.842;6.084;2022-09-09T13:14:45;21.84;63.25
66144;SHT31;52947;50.842;6.084;2022-09-09T13:17:19;20.89;65.79
66144;SHT31;52947;50.842;6.084;2022-09-09T13:19:48;20.90;65.49
66144;SHT31;52947;50.842;6.084;2022-09-09T13:22:28;20.72;65.02
66144;SHT31;52947;50.842;6.084;2022-09-09T13:25:02;20.36;65.73
66144;SHT31;52947;50.842;6.084;2022-09-09T13:27:33;19.88;67.28
66144;SHT31;52947;50.842;6.084;2022-09-09T13:30:20;19.77;67.43
66144;SHT31;52947;50.842;6.084;2022-09-09T13:33:00;20.00;66.74
66144;SHT31;52947;50.842;6.084;2022-09-09T13:35:28;20.15;66.02
66144;SHT31;52947;50.842;6.084;2022-09-09T13:37:57;20.28;65.09
66144;SHT31;52947;50.842;6.084;2022-09-09T13:40:25;20.48;64.52
66144;SHT31;52947;50.842;6.084;2022-09-09T13:42:56;20.75;63.88
66144;SHT31;52947;50.842;6.084;2022-09-09T13:45:26;21.08;63.87
66144;SHT31;52947;50.842;6.084;2022-09-09T13:47:55;21.06;63.48
66144;SHT31;52947;50.842;6.084;2022-09-09T13:50:25;20.79;63.87
66144;SHT31;52947;50.842;6.084;2022-09-09T13:52:54;20.79;63.74
66144;SHT31;52947;50.842;6.084;2022-09-09T13:55:26;20.68;64.18
66144;SHT31;52947;50.842;6.084;2022-09-09T13:57:57;20.92;63.78
66144;SHT31;52947;50.842;6.084;2022-09-09T14:00:29;20.72;63.44
66144;SHT31;52947;50.842;6.084;2022-09-09T14:02:58;20.55;64.14
66144;SHT31;52947;50.842;6.084;2022-09-09T14:05:30;20.45;64.72
66144;SHT31;52947;50.842;6.084;2022-09-09T14:07:59;20.82;64.06
66144;SHT31;52947;50.842;6.084;2022-09-09T14:10:27;20.77;64.02
66144;SHT31;52947;50.842;6.084;2022-09-09T14:12:57;20.79;63.14
66144;SHT31;52947;50.842;6.084;2022-09-09T14:15:28;20.94;63.45
66144;SHT31;52947;50.842;6.084;2022-09-09T14:17:57;20.89;62.91
66144;SHT31;52947;50.842;6.084;2022-09-09T14:20:25;20.69;63.46
66144;SHT31;52947;50.842;6.084;2022-09-09T14:22:53;20.42;63.73
66144;SHT31;52947;50.842;6.084;2022-09-09T14:25:29;20.32;64.97
66144;SHT31;52947;50.842;6.084;2022-09-09T14:27:59;20.44;64.42
66144;SHT31;52947;50.842;6.084;2022-09-09T14:30:28;20.53;63.98
66144;SHT31;52947;50.842;6.084;2022-09-09T14:32:56;20.20;64.65
66144;SHT31;52947;50.842;6.084;2022-09-09T14:35:24;20.05;65.67
66144;SHT31;52947;50.842;6.084;2022-09-09T14:37:52;19.97;65.97
66144;SHT31;52947;50.842;6.084;2022-09-09T14:40:23;19.91;66.35
66144;SHT31;52947;50.842;6.084;2022-09-09T14:42:52;19.67;69.25
66144;SHT31;52947;50.842;6.084;2022-09-09T14:45:21;19.39;71.40
66144;SHT31;52947;50.842;6.084;2022-09-09T14:47:51;18.96;72.06
66144;SHT31;52947;50.842;6.084;2022-09-09T14:50:20;18.62;72.81
66144;SHT31;52947;50.842;6.084;2022-09-09T14:52:48;18.65;73.78
66144;SHT31;52947;50.842;6.084;2022-09-09T14:55:17;18.89;73.65
66144;SHT31;52947;50.842;6.084;2022-09-09T14:57:45;18.87;73.48
66144;SHT31;52947;50.842;6.084;2022-09-09T15:00:13;18.81;74.13
66144;SHT31;52947;50.842;6.084;2022-09-09T15:02:43;18.61;72.61
66144;SHT31;52947;50.842;6.084;2022-09-09T15:05:11;18.40;73.78
66144;SHT31;52947;50.842;6.084;2022-09-09T15:07:39;18.37;74.19
66144;SHT31;52947;50.842;6.084;2022-09-09T15:10:08;18.29;73.91
66144;SHT31;52947;50.842;6.084;2022-09-09T15:12:37;18.20;74.21
66144;SHT31;52947;50.842;6.084;2022-09-09T15:15:05;18.04;77.16
66144;SHT31;52947;50.842;6.084;2022-09-09T15:17:34;17.96;78.51
66144;SHT31;52947;50.842;6.084;2022-09-09T15:20:04;17.96;77.96
66144;SHT31;52947;50.842;6.084;2022-09-09T15:22:32;18.24;77.00
66144;SHT31;52947;50.842;6.084;2022-09-09T15:25:03;18.26;76.77
66144;SHT31;52947;50.842;6.084;2022-09-09T15:27:32;18.34;77.26
66144;SHT31;52947;50.842;6.084;2022-09-09T15:30:00;18.40;76.69
66144;SHT31;52947;50.842;6.084;2022-09-09T15:32:28;18.50;75.63
66144;SHT31;52947;50.842;6.084;2022-09-09T15:34:56;18.50;75.58
66144;SHT31;52947;50.842;6.084;2022-09-09T15:37:26;18.61;75.80
66144;SHT31;52947;50.842;6.084;2022-09-09T15:39:53;18.64;75.37
66144;SHT31;52947;50.842;6.084;2022-09-09T15:42:21;18.68;74.62
66144;SHT31;52947;50.842;6.084;2022-09-09T15:44:51;18.58;74.26
66144;SHT31;52947;50.842;6.084;2022-09-09T15:47:19;18.47;75.11
66144;SHT31;52947;50.842;6.084;2022-09-09T15:49:47;18.50;75.56
66144;SHT31;52947;50.842;6.084;2022-09-09T15:52:14;18.54;74.38
66144;SHT31;52947;50.842;6.084;2022-09-09T15:54:44;18.57;74.34
66144;SHT31;52947;50.842;6.084;2022-09-09T15:57:13;18.64;74.22
66144;SHT31;52947;50.842;6.084;2022-09-09T15:59:40;18.57;74.22
66144;SHT31;52947;50.842;6.084;2022-09-09T16:02:09;18.51;73.57
66144;SHT31;52947;50.842;6.084;2022-09-09T16:04:37;18.40;73.89
66144;SHT31;52947;50.842;6.084;2022-09-09T16:07:06;18.40;74.59
66144;SHT31;52947;50.842;6.084;2022-09-09T16:09:33;18.37;74.43